sensor_id;sensor_type;location;lat;lon;timestamp;temperature;humidity
40932;DHT22;36257;46.052;12.540;2023-02-01T00:01:31;1.50;94.10
40932;DHT22;36257;46.052;12.540;2023-02-01T00:03:57;1.50;94.10
40932;DHT22;36257;46.052;12.540;2023-02-01T00:06:22;1.50;94.10
40932;DHT22;36257;46.052;12.540;2023-02-01T00:08:48;1.50;94.20
40932;DHT22;36257;46.052;12.540;2023-02-01T00:11:14;1.50;94.40
40932;DHT22;36257;46.052;12.540;2023-02-01T00:13:41;1.50;94.20
40932;DHT22;36257;46.052;12.540;2023-02-01T00:16:19;1.50;93.90
40932;DHT22;36257;46.052;12.540;2023-02-01T00:18:50;1.50;93.90
40932;DHT22;36257;46.052;12.540;2023-02-01T00:21:18;1.30;94.30
40932;DHT22;36257;46.052;12.540;2023-02-01T00:23:44;1.30;94.70
40932;DHT22;36257;46.052;12.540;2023-02-01T00:26:19;1.20;94.60
40932;DHT22;36257;46.052;12.540;2023-02-01T00:28:45;1.20;95.10
40932;DHT22;36257;46.052;12.540;2023-02-01T00:31:11;1.20;95.20
40932;DHT22;36257;46.052;12.540;2023-02-01T00:33:37;1.20;95.30
40932;DHT22;36257;46.052;12.540;2023-02-01T00:36:04;1.10;95.40
40932;DHT22;36257;46.052;12.540;2023-02-01T00:38:31;1.10;95.70
40932;DHT22;36257;46.052;12.540;2023-02-01T00:43:38;1.10;95.30
40932;DHT22;36257;46.052;12.540;2023-02-01T00:46:04;1.10;95.60
40932;DHT22;36257;46.052;12.540;2023-02-01T00:48:29;1.00;96.10
40932;DHT22;36257;46.052;12.540;2023-02-01T00:51:03;1.00;96.40
40932;DHT22;36257;46.052;12.540;2023-02-01T00:53:29;1.00;96.50
40932;DHT22;36257;46.052;12.540;2023-02-01T00:55:55;1.00;96.50
40932;DHT22;36257;46.052;12.540;2023-02-01T00:58:21;1.10;96.20
40932;DHT22;36257;46.052;12.540;2023-02-01T01:00:49;1.20;95.50
40932;DHT22;36257;46.052;12.540;2023-02-01T01:03:15;1.10;95.40
40932;DHT22;36257;46.052;12.540;2023-02-01T01:05:49;1.10;95.40
40932;DHT22;36257;46.052;12.540;2023-02-01T01:08:16;1.10;95.00
40932;DHT22;36257;46.052;12.540;2023-02-01T01:10:42;1.20;95.00
40932;DHT22;36257;46.052;12.540;2023-02-01T01:13:08;1.10;95.00
40932;DHT22;36257;46.052;12.540;2023-02-01T01:15:38;1.00;95.20
40932;DHT22;36257;46.052;12.540;2023-02-01T01:18:04;1.00;95.50
40932;DHT22;36257;46.052;12.540;2023-02-01T01:20:30;1.00;95.70
40932;DHT22;36257;46.052;12.540;2023-02-01T01:22:56;1.00;95.80
40932;DHT22;36257;46.052;12.540;2023-02-01T01:25:21;1.00;95.90
40932;DHT22;36257;46.052;12.540;2023-02-01T01:27:47;1.00;95.80
40932;DHT22;36257;46.052;12.540;2023-02-01T01:30:13;1.00;95.90
40932;DHT22;36257;46.052;12.540;2023-02-01T01:32:39;1.00;95.70
40932;DHT22;36257;46.052;12.540;2023-02-01T01:35:05;1.00;95.70
40932;DHT22;36257;46.052;12.540;2023-02-01T01:37:32;1.00;95.40
40932;DHT22;36257;46.052;12.540;2023-02-01T01:39:57;1.00;95.40
40932;DHT22;36257;46.052;12.540;2023-02-01T01:42:23;1.00;95.20
40932;DHT22;36257;46.052;12.540;2023-02-01T01:45:03;1.00;95.10
40932;DHT22;36257;46.052;12.540;2023-02-01T01:47:35;1.00;95.30
40932;DHT22;36257;46.052;12.540;2023-02-01T01:50:05;1.00;95.30
40932;DHT22;36257;46.052;12.540;2023-02-01T01:52:32;1.00;94.80
40932;DHT22;36257;46.052;12.540;2023-02-01T01:54:58;1.00;94.60
40932;DHT22;36257;46.052;12.540;2023-02-01T01:57:27;1.00;94.80
40932;DHT22;36257;46.052;12.540;2023-02-01T02:00:07;1.00;94.80
40932;DHT22;36257;46.052;12.540;2023-02-01T02:02:33;1.10;94.70
40932;DHT22;36257;46.052;12.540;2023-02-01T02:05:00;1.00;94.90
40932;DHT22;36257;46.052;12.540;2023-02-01T02:07:30;1.10;94.80
40932;DHT22;36257;46.052;12.540;2023-02-01T02:09:56;1.10;94.70
40932;DHT22;36257;46.052;12.540;2023-02-01T02:12:22;1.10;94.50
40932;DHT22;36257;46.052;12.540;2023-02-01T02:14:48;1.00;94.40
40932;DHT22;36257;46.052;12.540;2023-02-01T02:28:16;0.90;95.30
40932;DHT22;36257;46.052;12.540;2023-02-01T02:34:19;0.90;94.90
40932;DHT22;36257;46.052;12.540;2023-02-01T02:43:11;0.90;95.10
40932;DHT22;36257;46.052;12.540;2023-02-01T02:46:26;0.90;95.40
40932;DHT22;36257;46.052;12.540;2023-02-01T02:49:28;0.90;96.10
40932;DHT22;36257;46.052;12.540;2023-02-01T02:51:59;1.00;96.00
40932;DHT22;36257;46.052;12.540;2023-02-01T02:54:47;1.10;95.60
40932;DHT22;36257;46.052;12.540;2023-02-01T02:57:32;1.00;96.10
40932;DHT22;36257;46.052;12.540;2023-02-01T03:00:22;1.00;96.80
40932;DHT22;36257;46.052;12.540;2023-02-01T03:03:08;1.10;97.00
40932;DHT22;36257;46.052;12.540;2023-02-01T03:05:52;1.10;97.10
40932;DHT22;36257;46.052;12.540;2023-02-01T03:08:27;1.10;97.40
40932;DHT22;36257;46.052;12.540;2023-02-01T03:13:48;1.10;96.80
40932;DHT22;36257;46.052;12.540;2023-02-01T03:16:36;1.20;96.20
40932;DHT22;36257;46.052;12.540;2023-02-01T03:22:06;1.10;97.70
40932;DHT22;36257;46.052;12.540;2023-02-01T03:27:10;1.10;97.60
40932;DHT22;36257;46.052;12.540;2023-02-01T03:32:15;1.10;98.00
40932;DHT22;36257;46.052;12.540;2023-02-01T03:34:42;1.10;98.50
40932;DHT22;36257;46.052;12.540;2023-02-01T03:37:13;1.10;98.70
40932;DHT22;36257;46.052;12.540;2023-02-01T03:39:48;1.10;98.50
40932;DHT22;36257;46.052;12.540;2023-02-01T03:42:21;1.10;98.60
40932;DHT22;36257;46.052;12.540;2023-02-01T03:44:57;1.10;98.60
40932;DHT22;36257;46.052;12.540;2023-02-01T03:47:29;1.10;98.20
40932;DHT22;36257;46.052;12.540;2023-02-01T03:50:00;1.20;98.20
40932;DHT22;36257;46.052;12.540;2023-02-01T03:55:05;1.00;98.20
40932;DHT22;36257;46.052;12.540;2023-02-01T03:57:34;1.00;98.40
40932;DHT22;36257;46.052;12.540;2023-02-01T04:00:17;1.00;98.30
40932;DHT22;36257;46.052;12.540;2023-02-01T04:02:43;1.10;98.30
40932;DHT22;36257;46.052;12.540;2023-02-01T04:05:09;1.20;97.90
40932;DHT22;36257;46.052;12.540;2023-02-01T04:07:35;1.10;97.60
40932;DHT22;36257;46.052;12.540;2023-02-01T04:10:00;1.20;97.20
40932;DHT22;36257;46.052;12.540;2023-02-01T04:12:26;1.20;97.10
40932;DHT22;36257;46.052;12.540;2023-02-01T04:14:51;1.20;97.40
40932;DHT22;36257;46.052;12.540;2023-02-01T04:17:17;1.20;97.30
40932;DHT22;36257;46.052;12.540;2023-02-01T04:19:43;1.30;97.20
40932;DHT22;36257;46.052;12.540;2023-02-01T04:22:09;1.30;96.80
40932;DHT22;36257;46.052;12.540;2023-02-01T04:24:35;1.20;96.80
40932;DHT22;36257;46.052;12.540;2023-02-01T04:27:01;1.20;97.10
40932;DHT22;36257;46.052;12.540;2023-02-01T04:29:28;1.10;97.60
40932;DHT22;36257;46.052;12.540;2023-02-01T04:31:53;1.00;97.60
40932;DHT22;36257;46.052;12.540;2023-02-01T04:34:19;1.00;97.80
40932;DHT22;36257;46.052;12.540;2023-02-01T04:36:45;1.00;98.00
40932;DHT22;36257;46.052;12.540;2023-02-01T04:39:10;1.00;98.10
40932;DHT22;36257;46.052;12.540;2023-02-01T04:41:36;1.00;98.40
40932;DHT22;36257;46.052;12.540;2023-02-01T04:44:02;1.00;98.90
40932;DHT22;36257;46.052;12.540;2023-02-01T04:46:27;1.10;98.90
40932;DHT22;36257;46.052;12.540;2023-02-01T04:48:53;1.10;98.70
40932;DHT22;36257;46.052;12.540;2023-02-01T04:51:19;1.10;99.30
40932;DHT22;36257;46.052;12.540;2023-02-01T04:53:45;1.20;99.80
40932;DHT22;36257;46.052;12.540;2023-02-01T04:56:11;1.20;99.60
40932;DHT22;36257;46.052;12.540;2023-02-01T04:58:36;1.30;99.60
40932;DHT22;36257;46.052;12.540;2023-02-01T05:01:06;1.30;99.50
40932;DHT22;36257;46.052;12.540;2023-02-01T05:03:32;1.30;99.60
40932;DHT22;36257;46.052;12.540;2023-02-01T05:05:59;1.20;99.50
40932;DHT22;36257;46.052;12.540;2023-02-01T05:08:25;1.20;99.70
40932;DHT22;36257;46.052;12.540;2023-02-01T05:10:52;1.20;99.50
40932;DHT22;36257;46.052;12.540;2023-02-01T05:13:18;1.20;99.20
40932;DHT22;36257;46.052;12.540;2023-02-01T05:16:02;1.20;99.40
40932;DHT22;36257;46.052;12.540;2023-02-01T05:18:28;1.30;99.20
40932;DHT22;36257;46.052;12.540;2023-02-01T05:20:54;1.30;99.10
40932;DHT22;36257;46.052;12.540;2023-02-01T05:23:19;1.20;99.20
40932;DHT22;36257;46.052;12.540;2023-02-01T05:25:45;1.20;99.30
40932;DHT22;36257;46.052;12.540;2023-02-01T05:28:10;1.20;99.30
40932;DHT22;36257;46.052;12.540;2023-02-01T05:30:36;1.20;99.00
40932;DHT22;36257;46.052;12.540;2023-02-01T05:33:02;1.30;98.80
40932;DHT22;36257;46.052;12.540;2023-02-01T05:35:28;1.30;98.60
40932;DHT22;36257;46.052;12.540;2023-02-01T05:37:53;1.40;98.40
40932;DHT22;36257;46.052;12.540;2023-02-01T05:40:19;1.40;98.00
40932;DHT22;36257;46.052;12.540;2023-02-01T05:42:45;1.40;97.80
40932;DHT22;36257;46.052;12.540;2023-02-01T05:45:11;1.50;97.50
40932;DHT22;36257;46.052;12.540;2023-02-01T05:47:36;1.40;97.20
40932;DHT22;36257;46.052;12.540;2023-02-01T05:50:03;1.40;97.30
40932;DHT22;36257;46.052;12.540;2023-02-01T05:52:29;1.40;97.40
40932;DHT22;36257;46.052;12.540;2023-02-01T05:54:55;1.40;97.70
40932;DHT22;36257;46.052;12.540;2023-02-01T05:57:20;1.40;98.50
40932;DHT22;36257;46.052;12.540;2023-02-01T05:59:46;1.40;98.80
40932;DHT22;36257;46.052;12.540;2023-02-01T06:02:13;1.50;98.50
40932;DHT22;36257;46.052;12.540;2023-02-01T06:04:39;1.40;98.50
40932;DHT22;36257;46.052;12.540;2023-02-01T06:07:05;1.40;98.80
40932;DHT22;36257;46.052;12.540;2023-02-01T06:09:33;1.40;98.60
40932;DHT22;36257;46.052;12.540;2023-02-01T06:11:59;1.30;98.60
40932;DHT22;36257;46.052;12.540;2023-02-01T06:14:26;1.20;98.80
40932;DHT22;36257;46.052;12.540;2023-02-01T06:16:53;1.20;99.30
40932;DHT22;36257;46.052;12.540;2023-02-01T06:19:19;1.20;99.70
40932;DHT22;36257;46.052;12.540;2023-02-01T06:21:45;1.20;99.90
40932;DHT22;36257;46.052;12.540;2023-02-01T06:24:11;1.20;99.80
40932;DHT22;36257;46.052;12.540;2023-02-01T06:26:36;1.20;99.90
40932;DHT22;36257;46.052;12.540;2023-02-01T06:29:02;1.20;99.90
40932;DHT22;36257;46.052;12.540;2023-02-01T06:31:28;1.20;99.90
40932;DHT22;36257;46.052;12.540;2023-02-01T06:33:53;1.20;99.90
40932;DHT22;36257;46.052;12.540;2023-02-01T06:36:19;1.20;99.90
40932;DHT22;36257;46.052;12.540;2023-02-01T06:38:47;1.20;99.90
40932;DHT22;36257;46.052;12.540;2023-02-01T06:41:13;1.30;99.90
40932;DHT22;36257;46.052;12.540;2023-02-01T06:43:39;1.30;99.90
40932;DHT22;36257;46.052;12.540;2023-02-01T06:46:07;1.30;99.90
40932;DHT22;36257;46.052;12.540;2023-02-01T06:48:33;1.40;99.90
40932;DHT22;36257;46.052;12.540;2023-02-01T06:50:59;1.40;99.90
40932;DHT22;36257;46.052;12.540;2023-02-01T06:53:25;1.40;99.90
40932;DHT22;36257;46.052;12.540;2023-02-01T06:55:55;1.40;99.90
40932;DHT22;36257;46.052;12.540;2023-02-01T06:58:21;1.40;99.90
40932;DHT22;36257;46.052;12.540;2023-02-01T07:00:47;1.50;99.90
40932;DHT22;36257;46.052;12.540;2023-02-01T07:03:13;1.60;99.90
40932;DHT22;36257;46.052;12.540;2023-02-01T07:05:39;1.60;99.90
40932;DHT22;36257;46.052;12.540;2023-02-01T07:08:05;1.60;99.90
40932;DHT22;36257;46.052;12.540;2023-02-01T07:10:31;1.70;99.90
40932;DHT22;36257;46.052;12.540;2023-02-01T07:12:57;1.70;99.90
40932;DHT22;36257;46.052;12.540;2023-02-01T07:15:23;1.80;99.90
40932;DHT22;36257;46.052;12.540;2023-02-01T07:17:49;1.90;99.90
40932;DHT22;36257;46.052;12.540;2023-02-01T07:20:15;2.00;99.90
40932;DHT22;36257;46.052;12.540;2023-02-01T07:22:41;2.10;99.90
40932;DHT22;36257;46.052;12.540;2023-02-01T07:25:07;2.20;99.90
40932;DHT22;36257;46.052;12.540;2023-02-01T07:27:35;2.30;99.90
40932;DHT22;36257;46.052;12.540;2023-02-01T07:30:01;2.40;99.90
40932;DHT22;36257;46.052;12.540;2023-02-01T07:32:28;2.50;99.90
40932;DHT22;36257;46.052;12.540;2023-02-01T07:34:54;2.60;99.90
40932;DHT22;36257;46.052;12.540;2023-02-01T07:37:19;2.70;99.90
40932;DHT22;36257;46.052;12.540;2023-02-01T07:39:45;2.80;99.90
40932;DHT22;36257;46.052;12.540;2023-02-01T07:42:10;2.90;99.90
40932;DHT22;36257;46.052;12.540;2023-02-01T07:44:36;3.00;99.90
40932;DHT22;36257;46.052;12.540;2023-02-01T07:47:02;3.10;99.90
40932;DHT22;36257;46.052;12.540;2023-02-01T07:49:28;3.30;99.90
40932;DHT22;36257;46.052;12.540;2023-02-01T07:51:53;3.40;99.90
40932;DHT22;36257;46.052;12.540;2023-02-01T07:54:19;3.50;99.90
40932;DHT22;36257;46.052;12.540;2023-02-01T07:56:44;3.60;99.90
40932;DHT22;36257;46.052;12.540;2023-02-01T07:59:10;3.70;99.90
40932;DHT22;36257;46.052;12.540;2023-02-01T08:01:37;3.80;99.70
40932;DHT22;36257;46.052;12.540;2023-02-01T08:04:03;4.00;99.40
40932;DHT22;36257;46.052;12.540;2023-02-01T08:06:31;4.10;98.90
40932;DHT22;36257;46.052;12.540;2023-02-01T08:08:57;4.30;98.30
40932;DHT22;36257;46.052;12.540;2023-02-01T08:11:24;4.50;97.90
40932;DHT22;36257;46.052;12.540;2023-02-01T08:13:50;4.60;97.40
40932;DHT22;36257;46.052;12.540;2023-02-01T08:16:17;4.90;97.00
40932;DHT22;36257;46.052;12.540;2023-02-01T08:18:43;5.20;97.20
40932;DHT22;36257;46.052;12.540;2023-02-01T08:21:22;5.50;97.10
40932;DHT22;36257;46.052;12.540;2023-02-01T08:23:48;5.90;95.60
40932;DHT22;36257;46.052;12.540;2023-02-01T08:26:20;6.20;94.00
40932;DHT22;36257;46.052;12.540;2023-02-01T08:28:52;6.50;93.10
40932;DHT22;36257;46.052;12.540;2023-02-01T08:31:19;6.60;92.30
40932;DHT22;36257;46.052;12.540;2023-02-01T08:33:50;6.60;91.60
40932;DHT22;36257;46.052;12.540;2023-02-01T08:36:16;6.70;91.40
40932;DHT22;36257;46.052;12.540;2023-02-01T08:38:42;6.80;90.90
40932;DHT22;36257;46.052;12.540;2023-02-01T08:41:10;6.90;90.80
40932;DHT22;36257;46.052;12.540;2023-02-01T08:43:36;7.00;90.30
40932;DHT22;36257;46.052;12.540;2023-02-01T08:46:03;7.00;89.60
40932;DHT22;36257;46.052;12.540;2023-02-01T08:48:28;7.10;89.30
40932;DHT22;36257;46.052;12.540;2023-02-01T08:50:54;7.20;89.00
40932;DHT22;36257;46.052;12.540;2023-02-01T08:53:20;7.30;89.00
40932;DHT22;36257;46.052;12.540;2023-02-01T08:55:46;7.40;88.00
40932;DHT22;36257;46.052;12.540;2023-02-01T08:58:12;7.50;87.60
40932;DHT22;36257;46.052;12.540;2023-02-01T09:00:39;7.70;87.20
40932;DHT22;36257;46.052;12.540;2023-02-01T09:03:05;7.90;86.90
40932;DHT22;36257;46.052;12.540;2023-02-01T09:05:31;8.10;86.00
40932;DHT22;36257;46.052;12.540;2023-02-01T09:07:57;8.30;85.30
40932;DHT22;36257;46.052;12.540;2023-02-01T09:10:22;8.30;84.80
40932;DHT22;36257;46.052;12.540;2023-02-01T09:12:48;8.30;85.60
40932;DHT22;36257;46.052;12.540;2023-02-01T09:15:14;8.40;85.00
40932;DHT22;36257;46.052;12.540;2023-02-01T09:17:39;8.60;84.90
40932;DHT22;36257;46.052;12.540;2023-02-01T09:20:08;8.70;84.60
40932;DHT22;36257;46.052;12.540;2023-02-01T09:22:34;8.80;84.20
40932;DHT22;36257;46.052;12.540;2023-02-01T09:24:59;8.80;83.90
40932;DHT22;36257;46.052;12.540;2023-02-01T09:27:25;8.70;84.60
40932;DHT22;36257;46.052;12.540;2023-02-01T09:29:51;8.80;84.00
40932;DHT22;36257;46.052;12.540;2023-02-01T09:32:20;9.00;84.00
40932;DHT22;36257;46.052;12.540;2023-02-01T09:34:45;9.10;83.30
40932;DHT22;36257;46.052;12.540;2023-02-01T09:37:11;9.20;82.70
40932;DHT22;36257;46.052;12.540;2023-02-01T09:39:37;9.20;82.50
40932;DHT22;36257;46.052;12.540;2023-02-01T09:42:22;9.10;81.90
40932;DHT22;36257;46.052;12.540;2023-02-01T09:47:54;9.30;81.80
40932;DHT22;36257;46.052;12.540;2023-02-01T09:50:28;9.40;81.40
40932;DHT22;36257;46.052;12.540;2023-02-01T09:53:04;9.60;81.40
40932;DHT22;36257;46.052;12.540;2023-02-01T09:55:40;9.80;80.60
40932;DHT22;36257;46.052;12.540;2023-02-01T09:58:27;10.10;79.70
40932;DHT22;36257;46.052;12.540;2023-02-01T10:00:56;10.20;79.10
40932;DHT22;36257;46.052;12.540;2023-02-01T10:03:28;10.40;78.70
40932;DHT22;36257;46.052;12.540;2023-02-01T10:06:29;10.50;78.40
40932;DHT22;36257;46.052;12.540;2023-02-01T10:09:08;10.50;78.10
40932;DHT22;36257;46.052;12.540;2023-02-01T10:11:45;10.60;78.00
40932;DHT22;36257;46.052;12.540;2023-02-01T10:14:18;10.80;77.40
40932;DHT22;36257;46.052;12.540;2023-02-01T10:17:02;10.90;76.80
40932;DHT22;36257;46.052;12.540;2023-02-01T10:22:05;10.80;76.90
40932;DHT22;36257;46.052;12.540;2023-02-01T10:27:02;10.80;76.60
40932;DHT22;36257;46.052;12.540;2023-02-01T10:29:36;10.90;76.00
40932;DHT22;36257;46.052;12.540;2023-02-01T10:32:03;11.10;77.30
40932;DHT22;36257;46.052;12.540;2023-02-01T10:34:35;11.30;76.70
40932;DHT22;36257;46.052;12.540;2023-02-01T10:37:17;11.60;76.60
40932;DHT22;36257;46.052;12.540;2023-02-01T10:39:49;11.80;75.60
40932;DHT22;36257;46.052;12.540;2023-02-01T10:42:26;11.80;75.40
40932;DHT22;36257;46.052;12.540;2023-02-01T10:44:54;12.10;75.80
40932;DHT22;36257;46.052;12.540;2023-02-01T10:47:21;12.20;74.10
40932;DHT22;36257;46.052;12.540;2023-02-01T10:50:09;12.40;74.10
40932;DHT22;36257;46.052;12.540;2023-02-01T10:52:55;12.50;73.60
40932;DHT22;36257;46.052;12.540;2023-02-01T10:55:32;12.40;73.00
40932;DHT22;36257;46.052;12.540;2023-02-01T10:58:04;12.40;73.10
40932;DHT22;36257;46.052;12.540;2023-02-01T11:01:06;12.40;72.70
40932;DHT22;36257;46.052;12.540;2023-02-01T11:03:51;12.70;72.90
40932;DHT22;36257;46.052;12.540;2023-02-01T11:06:30;13.00;72.50
40932;DHT22;36257;46.052;12.540;2023-02-01T11:11:31;12.90;71.60
40932;DHT22;36257;46.052;12.540;2023-02-01T11:14:04;13.00;71.80
40932;DHT22;36257;46.052;12.540;2023-02-01T11:16:38;13.20;70.60
40932;DHT22;36257;46.052;12.540;2023-02-01T11:19:04;13.10;70.80
40932;DHT22;36257;46.052;12.540;2023-02-01T11:21:31;13.20;70.20
40932;DHT22;36257;46.052;12.540;2023-02-01T11:24:04;13.30;70.90
40932;DHT22;36257;46.052;12.540;2023-02-01T11:26:32;13.20;70.20
40932;DHT22;36257;46.052;12.540;2023-02-01T11:29:05;13.20;71.00
40932;DHT22;36257;46.052;12.540;2023-02-01T11:31:35;13.40;71.20
40932;DHT22;36257;46.052;12.540;2023-02-01T11:34:21;13.50;70.40
40932;DHT22;36257;46.052;12.540;2023-02-01T11:36:49;13.40;70.10
40932;DHT22;36257;46.052;12.540;2023-02-01T11:39:25;13.20;70.60
40932;DHT22;36257;46.052;12.540;2023-02-01T11:42:11;13.20;70.60
40932;DHT22;36257;46.052;12.540;2023-02-01T11:44:40;13.30;70.50
40932;DHT22;36257;46.052;12.540;2023-02-01T11:49:45;13.70;69.00
40932;DHT22;36257;46.052;12.540;2023-02-01T12:12:03;14.70;67.10
40932;DHT22;36257;46.052;12.540;2023-02-01T12:14:37;14.40;67.60
40932;DHT22;36257;46.052;12.540;2023-02-01T12:17:41;14.30;67.50
40932;DHT22;36257;46.052;12.540;2023-02-01T12:30:57;14.20;68.80
40932;DHT22;36257;46.052;12.540;2023-02-01T12:33:40;14.30;67.20
40932;DHT22;36257;46.052;12.540;2023-02-01T12:36:12;14.40;68.00
40932;DHT22;36257;46.052;12.540;2023-02-01T12:39:02;14.30;68.30
40932;DHT22;36257;46.052;12.540;2023-02-01T12:42:26;14.10;68.90
40932;DHT22;36257;46.052;12.540;2023-02-01T12:44:46;14.10;68.80
40932;DHT22;36257;46.052;12.540;2023-02-01T12:50:18;14.50;68.40
40932;DHT22;36257;46.052;12.540;2023-02-01T12:52:51;14.70;67.40
40932;DHT22;36257;46.052;12.540;2023-02-01T13:00:36;15.80;64.90
40932;DHT22;36257;46.052;12.540;2023-02-01T13:08:53;15.80;64.50
40932;DHT22;36257;46.052;12.540;2023-02-01T13:11:29;15.70;65.10
40932;DHT22;36257;46.052;12.540;2023-02-01T13:14:19;15.70;65.90
40932;DHT22;36257;46.052;12.540;2023-02-01T13:16:53;15.50;65.40
40932;DHT22;36257;46.052;12.540;2023-02-01T13:21:59;15.10;66.30
40932;DHT22;36257;46.052;12.540;2023-02-01T13:24:46;15.10;66.40
40932;DHT22;36257;46.052;12.540;2023-02-01T13:27:16;14.70;66.50
40932;DHT22;36257;46.052;12.540;2023-02-01T13:33:04;14.10;68.60
40932;DHT22;36257;46.052;12.540;2023-02-01T13:35:36;14.10;68.10
40932;DHT22;36257;46.052;12.540;2023-02-01T13:43:02;14.10;67.80
40932;DHT22;36257;46.052;12.540;2023-02-01T13:45:33;14.30;67.90
40932;DHT22;36257;46.052;12.540;2023-02-01T13:48:03;14.60;67.40
40932;DHT22;36257;46.052;12.540;2023-02-01T13:50:40;14.90;67.40
40932;DHT22;36257;46.052;12.540;2023-02-01T13:55:40;15.00;66.80
40932;DHT22;36257;46.052;12.540;2023-02-01T13:58:19;15.20;66.50
40932;DHT22;36257;46.052;12.540;2023-02-01T14:00:48;15.30;65.90
40932;DHT22;36257;46.052;12.540;2023-02-01T14:03:15;15.30;65.30
40932;DHT22;36257;46.052;12.540;2023-02-01T14:08:11;15.00;65.70
40932;DHT22;36257;46.052;12.540;2023-02-01T14:13:32;14.20;67.30
40932;DHT22;36257;46.052;12.540;2023-02-01T14:23:43;13.20;69.30
40932;DHT22;36257;46.052;12.540;2023-02-01T14:26:16;13.00;70.80
40932;DHT22;36257;46.052;12.540;2023-02-01T14:28:46;12.80;70.80
40932;DHT22;36257;46.052;12.540;2023-02-01T14:31:40;12.90;71.30
40932;DHT22;36257;46.052;12.540;2023-02-01T14:34:30;12.90;70.90
40932;DHT22;36257;46.052;12.540;2023-02-01T14:39:41;12.80;71.30
40932;DHT22;36257;46.052;12.540;2023-02-01T14:44:51;12.40;72.00
40932;DHT22;36257;46.052;12.540;2023-02-01T14:50:12;11.90;73.30
40932;DHT22;36257;46.052;12.540;2023-02-01T15:00:54;11.20;75.90
40932;DHT22;36257;46.052;12.540;2023-02-01T15:03:43;11.20;76.00
40932;DHT22;36257;46.052;12.540;2023-02-01T15:06:27;11.10;76.50
40932;DHT22;36257;46.052;12.540;2023-02-01T15:08:58;11.00;77.00
40932;DHT22;36257;46.052;12.540;2023-02-01T15:11:25;10.90;76.50
40932;DHT22;36257;46.052;12.540;2023-02-01T15:13:52;10.80;77.00
40932;DHT22;36257;46.052;12.540;2023-02-01T15:16:21;10.70;77.40
40932;DHT22;36257;46.052;12.540;2023-02-01T15:18:48;10.60;77.00
40932;DHT22;36257;46.052;12.540;2023-02-01T15:21:19;10.60;77.30
40932;DHT22;36257;46.052;12.540;2023-02-01T15:23:45;10.60;77.40
40932;DHT22;36257;46.052;12.540;2023-02-01T15:26:27;10.60;77.60
40932;DHT22;36257;46.052;12.540;2023-02-01T15:28:55;10.50;77.30
40932;DHT22;36257;46.052;12.540;2023-02-01T15:31:35;10.50;77.80
40932;DHT22;36257;46.052;12.540;2023-02-01T15:34:04;10.50;78.60
40932;DHT22;36257;46.052;12.540;2023-02-01T15:36:29;10.40;78.70
40932;DHT22;36257;46.052;12.540;2023-02-01T15:42:17;9.80;80.10
40932;DHT22;36257;46.052;12.540;2023-02-01T15:44:45;9.60;80.30
40932;DHT22;36257;46.052;12.540;2023-02-01T15:47:20;9.30;80.80
40932;DHT22;36257;46.052;12.540;2023-02-01T15:49:55;9.10;81.80
40932;DHT22;36257;46.052;12.540;2023-02-01T15:52:24;8.80;82.50
40932;DHT22;36257;46.052;12.540;2023-02-01T15:54:54;8.60;82.80
40932;DHT22;36257;46.052;12.540;2023-02-01T15:57:36;8.40;83.20
40932;DHT22;36257;46.052;12.540;2023-02-01T16:00:07;8.30;84.00
40932;DHT22;36257;46.052;12.540;2023-02-01T16:02:37;8.20;84.20
40932;DHT22;36257;46.052;12.540;2023-02-01T16:05:32;8.10;84.40
40932;DHT22;36257;46.052;12.540;2023-02-01T16:08:12;7.90;84.80
40932;DHT22;36257;46.052;12.540;2023-02-01T16:10:44;7.80;85.10
40932;DHT22;36257;46.052;12.540;2023-02-01T16:13:11;7.70;85.20
40932;DHT22;36257;46.052;12.540;2023-02-01T16:15:37;7.60;85.70
40932;DHT22;36257;46.052;12.540;2023-02-01T16:18:03;7.50;86.10
40932;DHT22;36257;46.052;12.540;2023-02-01T16:20:28;7.40;86.10
40932;DHT22;36257;46.052;12.540;2023-02-01T16:22:55;7.30;86.40
40932;DHT22;36257;46.052;12.540;2023-02-01T16:25:21;7.20;86.70
40932;DHT22;36257;46.052;12.540;2023-02-01T16:27:47;7.00;87.20
40932;DHT22;36257;46.052;12.540;2023-02-01T16:30:13;6.90;87.50
40932;DHT22;36257;46.052;12.540;2023-02-01T16:32:38;6.90;87.70
40932;DHT22;36257;46.052;12.540;2023-02-01T16:35:09;6.70;88.20
40932;DHT22;36257;46.052;12.540;2023-02-01T16:37:39;6.70;88.50
40932;DHT22;36257;46.052;12.540;2023-02-01T16:40:05;6.60;88.40
40932;DHT22;36257;46.052;12.540;2023-02-01T16:42:30;6.60;88.50
40932;DHT22;36257;46.052;12.540;2023-02-01T16:44:56;6.50;88.70
40932;DHT22;36257;46.052;12.540;2023-02-01T16:47:23;6.50;88.70
40932;DHT22;36257;46.052;12.540;2023-02-01T16:49:49;6.40;88.90
40932;DHT22;36257;46.052;12.540;2023-02-01T16:52:21;6.30;89.20
40932;DHT22;36257;46.052;12.540;2023-02-01T16:54:48;6.30;89.20
40932;DHT22;36257;46.052;12.540;2023-02-01T16:57:15;6.30;89.20
40932;DHT22;36257;46.052;12.540;2023-02-01T16:59:42;6.10;89.40
40932;DHT22;36257;46.052;12.540;2023-02-01T17:02:19;6.00;90.00
40932;DHT22;36257;46.052;12.540;2023-02-01T17:04:46;6.00;90.10
40932;DHT22;36257;46.052;12.540;2023-02-01T17:07:14;5.90;90.20
40932;DHT22;36257;46.052;12.540;2023-02-01T17:09:40;5.90;90.50
40932;DHT22;36257;46.052;12.540;2023-02-01T17:12:21;5.80;90.80
40932;DHT22;36257;46.052;12.540;2023-02-01T17:14:46;5.80;90.70
40932;DHT22;36257;46.052;12.540;2023-02-01T17:17:12;5.70;91.20
40932;DHT22;36257;46.052;12.540;2023-02-01T17:19:38;5.70;91.00
40932;DHT22;36257;46.052;12.540;2023-02-01T17:22:04;5.60;90.80
40932;DHT22;36257;46.052;12.540;2023-02-01T17:24:31;5.60;91.00
40932;DHT22;36257;46.052;12.540;2023-02-01T17:26:57;5.50;91.30
40932;DHT22;36257;46.052;12.540;2023-02-01T17:29:24;5.50;91.40
40932;DHT22;36257;46.052;12.540;2023-02-01T17:31:54;5.50;91.40
40932;DHT22;36257;46.052;12.540;2023-02-01T17:34:20;5.40;91.60
40932;DHT22;36257;46.052;12.540;2023-02-01T17:36:47;5.30;92.10
40932;DHT22;36257;46.052;12.540;2023-02-01T17:39:14;5.30;92.10
40932;DHT22;36257;46.052;12.540;2023-02-01T17:42:00;5.30;91.90
40932;DHT22;36257;46.052;12.540;2023-02-01T17:44:26;5.30;92.00
40932;DHT22;36257;46.052;12.540;2023-02-01T17:46:52;5.20;91.80
40932;DHT22;36257;46.052;12.540;2023-02-01T17:49:17;5.20;91.90
40932;DHT22;36257;46.052;12.540;2023-02-01T17:51:43;5.10;92.30
40932;DHT22;36257;46.052;12.540;2023-02-01T17:54:12;5.00;92.90
40932;DHT22;36257;46.052;12.540;2023-02-01T17:56:38;5.00;92.70
40932;DHT22;36257;46.052;12.540;2023-02-01T17:59:04;4.90;93.10
40932;DHT22;36257;46.052;12.540;2023-02-01T18:01:29;4.90;93.30
40932;DHT22;36257;46.052;12.540;2023-02-01T18:03:55;4.90;93.30
40932;DHT22;36257;46.052;12.540;2023-02-01T18:06:24;4.90;93.20